Αίθριος αλλά θολός
Αίθριος αλλά θολός
Λίγο νεφελώδης και με λίγα cirrus
Αίθριος, θολός με cirrus
Σχεδόν αίθριος με λίγα χαμηλά και cirrus
Νεφοσκεπής
Νεφοσκεπής
(°C)
(°C)
-3°
-3°
-4°
-4°
-4°
-4°
-4°
Ν
Ν
ΝΔ
ΔΒΔ
Δ
ΔΝΔ
ΔΝΔ
(km/h)
9-14
9-12
9-13
9-14
9-13
9-12
8-12
(χιλιοστά)
0
0
0
0
0
0
0
(%)
0
0
0
0
0
0
0

Ανύψωση ήλιου

/ -57.7°
sun-icon
UV 5
05:55
17:30
Φθίνων αμφίκυρτος (φάση σελήνης) (280°)
01:15
10:32

METAR για Μασάντ (OIMM)

Χρόνος Συνθήκες Θερμοκρασία/
Σημείο δρόσου
Άνεμος Ορατότητα Καιρός Νέφη Πίεση Αλλαγή Ανεπεξέργαστο
MVFR 1°C / -1°C variable 0kt 8000m - Clear 1018 - OIMM 032030Z 00000KT 8000 NSC 01/M01 Q1018 A3007
VFR 1°C / -1°C 170º 4kt 9000m - Clear 1018 - OIMM 032000Z 17004KT 9000 NSC 01/M01 Q1018 A3007
VFR 1°C / -1°C 160º 6kt 9700m - Clouds and Visibility OK 1018 - OIMM 031930Z 16006KT CAVOK 01/M01 Q1018 A3007
VFR 1°C / -1°C 170º 6kt 9700m - Clouds and Visibility OK 1018 - OIMM 031900Z 17006KT CAVOK 01/M01 Q1018 A3007
VFR 1°C / -1°C 150º 8kt 9700m - Clouds and Visibility OK 1018 - OIMM 031830Z 15008KT CAVOK 01/M01 Q1018 A3008
VFR 1°C / -1°C 180º 6kt 9700m - Clouds and Visibility OK 1018 - OIMM 031800Z 18006KT CAVOK 01/M01 Q1018 A3009
VFR 2°C / -1°C 150º 10kt 9700m - Clouds and Visibility OK 1018 - OIMM 031730Z 15010KT CAVOK 02/M01 Q1018 A3009
VFR 2°C / 0°C 180º 4kt 9700m - Clouds and Visibility OK 1018 - OIMM 031700Z 18004KT CAVOK 02/M00 Q1018 A3008
VFR 3°C / 0°C 170º 6kt 9700m - Clouds and Visibility OK 1018 - OIMM 031630Z 17006KT CAVOK 03/M00 Q1018 A3007
VFR 3°C / 0°C 140º 8kt 9700m - Clouds and Visibility OK 1018 - OIMM 031600Z 14008KT CAVOK 03/M00 Q1018 A3008
VFR 4°C / 0°C 160º 6kt 9700m - Clouds and Visibility OK 1018 - OIMM 031530Z 16006KT CAVOK 04/M00 Q1018 A3008
VFR 4°C / 0°C 160º 4kt 9700m - Clouds and Visibility OK 1018 - OIMM 031500Z 16004KT CAVOK 04/M00 Q1018 A3007
MVFR 4°C / 0°C 170º 6kt 8000m - Clear 1018 - OIMM 031430Z 17006KT 8000 NSC 04/00 Q1018 A3007
MVFR 5°C / 0°C 160º 6kt 8000m - Clear 1018 - OIMM 031400Z 16006KT 8000 NSC 05/M00 Q1018 A3007
MVFR 5°C / 0°C 160º 8kt 8000m - Clear 1017 - OIMM 031330Z 16008KT 8000 NSC 05/M00 Q1017 A3006
MVFR 6°C / 0°C 160º 6kt 8000m - Clear 1017 - OIMM 031300Z 16006KT 8000 NSC 06/M00 Q1017 A3006
MVFR 7°C / 1°C 110º 6kt 8000m - Clear 1017 - OIMM 031230Z 11006KT 8000 NSC 07/01 Q1017 A3006
MVFR 6°C / 0°C 220º 8kt 8000m - Clear 1018 - OIMM 031200Z 22008KT 8000 NSC 06/M00 Q1018 A3006
MVFR 6°C / 0°C 200º 4kt 7000m - Clear 1018 - OIMM 031130Z 20004KT 7000 NSC 06/00 Q1018 A3007
MVFR 6°C / 0°C 160º 4kt 6000m - Clear 1018 - OIMM 031100Z 16004KT 6000 NSC 06/M00 Q1018 A3007
MVFR -6°C / 0°C 100º 4kt 6000m - Clear 1018 - OIMM 031030Z 10004KT 6000 NSC M06/M00 Q1018 A3007
MVFR 5°C / 0°C 70º 4kt 6000m - Clear 1018 - OIMM 031000Z 07004KT 6000 NSC 05/M00 Q1018 A3008
MVFR 4°C / -1°C 80º 6kt 6000m - Few Clouds 2500ft 1018 - OIMM 030930Z 08006KT 6000 FEW025 04/M01 Q1018 A3009
MVFR 4°C / -1°C 180º 6kt 6000m - Scattered Clouds 2500ft 1019 - OIMM 030900Z 18006KT 6000 SCT025 04/M01 Q1019 A3010

MVFR

1°C / -1°C

[Περισσότερο]
Άνεμος variable 0kt
Ορατότητα 8000m
Καιρός -
Νέφη Clear
Πίεση 1018
Αλλαγή -
Ανεπεξέργαστο OIMM 032030Z 00000KT 8000 NSC 01/M01 Q1018 A3007

VFR

1°C / -1°C

[Περισσότερο]
Άνεμος 170º 4kt
Ορατότητα 9000m
Καιρός -
Νέφη Clear
Πίεση 1018
Αλλαγή -
Ανεπεξέργαστο OIMM 032000Z 17004KT 9000 NSC 01/M01 Q1018 A3007

VFR

1°C / -1°C

[Περισσότερο]
Άνεμος 160º 6kt
Ορατότητα 9700m
Καιρός -
Νέφη Clouds and Visibility OK
Πίεση 1018
Αλλαγή -
Ανεπεξέργαστο OIMM 031930Z 16006KT CAVOK 01/M01 Q1018 A3007

VFR

1°C / -1°C

[Περισσότερο]
Άνεμος 170º 6kt
Ορατότητα 9700m
Καιρός -
Νέφη Clouds and Visibility OK
Πίεση 1018
Αλλαγή -
Ανεπεξέργαστο OIMM 031900Z 17006KT CAVOK 01/M01 Q1018 A3007

VFR

1°C / -1°C

[Περισσότερο]
Άνεμος 150º 8kt
Ορατότητα 9700m
Καιρός -
Νέφη Clouds and Visibility OK
Πίεση 1018
Αλλαγή -
Ανεπεξέργαστο OIMM 031830Z 15008KT CAVOK 01/M01 Q1018 A3008

VFR

1°C / -1°C

[Περισσότερο]
Άνεμος 180º 6kt
Ορατότητα 9700m
Καιρός -
Νέφη Clouds and Visibility OK
Πίεση 1018
Αλλαγή -
Ανεπεξέργαστο OIMM 031800Z 18006KT CAVOK 01/M01 Q1018 A3009

VFR

2°C / -1°C

[Περισσότερο]
Άνεμος 150º 10kt
Ορατότητα 9700m
Καιρός -
Νέφη Clouds and Visibility OK
Πίεση 1018
Αλλαγή -
Ανεπεξέργαστο OIMM 031730Z 15010KT CAVOK 02/M01 Q1018 A3009

VFR

2°C / 0°C

[Περισσότερο]
Άνεμος 180º 4kt
Ορατότητα 9700m
Καιρός -
Νέφη Clouds and Visibility OK
Πίεση 1018
Αλλαγή -
Ανεπεξέργαστο OIMM 031700Z 18004KT CAVOK 02/M00 Q1018 A3008

VFR

3°C / 0°C

[Περισσότερο]
Άνεμος 170º 6kt
Ορατότητα 9700m
Καιρός -
Νέφη Clouds and Visibility OK
Πίεση 1018
Αλλαγή -
Ανεπεξέργαστο OIMM 031630Z 17006KT CAVOK 03/M00 Q1018 A3007

VFR

3°C / 0°C

[Περισσότερο]
Άνεμος 140º 8kt
Ορατότητα 9700m
Καιρός -
Νέφη Clouds and Visibility OK
Πίεση 1018
Αλλαγή -
Ανεπεξέργαστο OIMM 031600Z 14008KT CAVOK 03/M00 Q1018 A3008

VFR

4°C / 0°C

[Περισσότερο]
Άνεμος 160º 6kt
Ορατότητα 9700m
Καιρός -
Νέφη Clouds and Visibility OK
Πίεση 1018
Αλλαγή -
Ανεπεξέργαστο OIMM 031530Z 16006KT CAVOK 04/M00 Q1018 A3008

VFR

4°C / 0°C

[Περισσότερο]
Άνεμος 160º 4kt
Ορατότητα 9700m
Καιρός -
Νέφη Clouds and Visibility OK
Πίεση 1018
Αλλαγή -
Ανεπεξέργαστο OIMM 031500Z 16004KT CAVOK 04/M00 Q1018 A3007

MVFR

4°C / 0°C

[Περισσότερο]
Άνεμος 170º 6kt
Ορατότητα 8000m
Καιρός -
Νέφη Clear
Πίεση 1018
Αλλαγή -
Ανεπεξέργαστο OIMM 031430Z 17006KT 8000 NSC 04/00 Q1018 A3007

MVFR

5°C / 0°C

[Περισσότερο]
Άνεμος 160º 6kt
Ορατότητα 8000m
Καιρός -
Νέφη Clear
Πίεση 1018
Αλλαγή -
Ανεπεξέργαστο OIMM 031400Z 16006KT 8000 NSC 05/M00 Q1018 A3007

MVFR

5°C / 0°C

[Περισσότερο]
Άνεμος 160º 8kt
Ορατότητα 8000m
Καιρός -
Νέφη Clear
Πίεση 1017
Αλλαγή -
Ανεπεξέργαστο OIMM 031330Z 16008KT 8000 NSC 05/M00 Q1017 A3006

MVFR

6°C / 0°C

[Περισσότερο]
Άνεμος 160º 6kt
Ορατότητα 8000m
Καιρός -
Νέφη Clear
Πίεση 1017
Αλλαγή -
Ανεπεξέργαστο OIMM 031300Z 16006KT 8000 NSC 06/M00 Q1017 A3006

MVFR

7°C / 1°C

[Περισσότερο]
Άνεμος 110º 6kt
Ορατότητα 8000m
Καιρός -
Νέφη Clear
Πίεση 1017
Αλλαγή -
Ανεπεξέργαστο OIMM 031230Z 11006KT 8000 NSC 07/01 Q1017 A3006

MVFR

6°C / 0°C

[Περισσότερο]
Άνεμος 220º 8kt
Ορατότητα 8000m
Καιρός -
Νέφη Clear
Πίεση 1018
Αλλαγή -
Ανεπεξέργαστο OIMM 031200Z 22008KT 8000 NSC 06/M00 Q1018 A3006

MVFR

6°C / 0°C

[Περισσότερο]
Άνεμος 200º 4kt
Ορατότητα 7000m
Καιρός -
Νέφη Clear
Πίεση 1018
Αλλαγή -
Ανεπεξέργαστο OIMM 031130Z 20004KT 7000 NSC 06/00 Q1018 A3007

MVFR

6°C / 0°C

[Περισσότερο]
Άνεμος 160º 4kt
Ορατότητα 6000m
Καιρός -
Νέφη Clear
Πίεση 1018
Αλλαγή -
Ανεπεξέργαστο OIMM 031100Z 16004KT 6000 NSC 06/M00 Q1018 A3007

MVFR

-6°C / 0°C

[Περισσότερο]
Άνεμος 100º 4kt
Ορατότητα 6000m
Καιρός -
Νέφη Clear
Πίεση 1018
Αλλαγή -
Ανεπεξέργαστο OIMM 031030Z 10004KT 6000 NSC M06/M00 Q1018 A3007

MVFR

5°C / 0°C

[Περισσότερο]
Άνεμος 70º 4kt
Ορατότητα 6000m
Καιρός -
Νέφη Clear
Πίεση 1018
Αλλαγή -
Ανεπεξέργαστο OIMM 031000Z 07004KT 6000 NSC 05/M00 Q1018 A3008

MVFR

4°C / -1°C

[Περισσότερο]
Άνεμος 80º 6kt
Ορατότητα 6000m
Καιρός -
Νέφη Few Clouds 2500ft
Πίεση 1018
Αλλαγή -
Ανεπεξέργαστο OIMM 030930Z 08006KT 6000 FEW025 04/M01 Q1018 A3009

MVFR

4°C / -1°C

[Περισσότερο]
Άνεμος 180º 6kt
Ορατότητα 6000m
Καιρός -
Νέφη Scattered Clouds 2500ft
Πίεση 1019
Αλλαγή -
Ανεπεξέργαστο OIMM 030900Z 18006KT 6000 SCT025 04/M01 Q1019 A3010

TAF για Μασάντ (OIMM)

From till


From till Wind 200º 6kt. Visibility 7000m. Few Clouds 3500ft.
Becoming from till
Temporarly from till Visibility 3000m. Mist . Broken Clouds 2000ft.

Ανεπεξέργαστο: TAF OIMM 031750Z 0318/0424 20006KT 7000 FEW035 BECMG 0320/0322 FEW035 SCT090 TEMPO 0400/0409 3000 BR BKN020

Ραντάρ και πρόγνωση υετού μικρής διάρκειας για Μασάντ

Ψιλοβρέχει
Ελαφριά
Μέτρια
Έντονη
Πολύ έντονες
Χαλάζι

Ο δείκτης θέσης τοποθετείται στο Μασάντ. Αυτό το κινούμενο σχέδιο δείχνει το ραντάρ βροχόπτωσης για το επιλεγμένο χρονικό εύρος, καθώς και μια πρόγνωση 2h. Οι πορτοκαλί σταυροί υποδεικνύουν κεραυνούς. Δεδομένα που παρέχονται από nowcast.de (διαθέσιμα στις ΗΠΑ, την Ευρώπη, την Αυστραλία). Το ψιλόβροχο ή το ελαφρύ χιόνι μπορεί να είναι αόρατο για το ραντάρ. Η ένταση της βροχόπτωσης είναι χρωματικά κωδικοποιημένη και κυμαίνεται από τυρκουάζ έως κόκκινο.

Τρέχουσες εικόνες δορυφόρου και βροχής για Μασάντ, Ιράν

Η ένδειξη τοποθεσίας τοποθετείται στο Μασάντ. [Περισσότερο]

Οι δορυφορικές εικόνες σε πραγματικό χρόνο συνδυάζουν ορατό φως κατά τη διάρκεια της ημέρας με υπέρυθρη ακτινοβολία κατά τη διάρκεια της νύχτας. Κατά τη διάρκεια της νύχτας, η εικόνα δεν είναι σκοτεινή μιας και η υπέρυθρη ακτινοβολία μπορεί να εντοπίσει τις διαφορές στη θερμοκρασία. Δυστυχώς, είναι δύσκολο να ξεχωρίσουν οι χαμηλές νεφώσεις και η ομίχλη από τις θερμοκρασίες εδάφους και έτσι μπορεί να είναι σχετικά αόρατα κατά τη διάρκεια της νύχτας. Οι εικόνες από τον δορυφόρο Meteosat για την Ευρώπη ενημερώνονται σε πραγματικό χρόνο κάθε 5 λεπτά. Οι εικόνες από τους δορυφόρους GOES-16/GOES-17 (Βόρεια & Λατινική Αμερική) και Himawari (Ασία) ενημερώνονται κάθε 10 λεπτά.

Η βροχόπτωση εκτιμάται από ραντάρ και δορυφόρους. Οι εκτιμήσεις βροχόπτωσης από τους δορυφόρους είναι λιγότερο ακριβείς τη νύχτα απ' ό,τι κατά τη διάρκεια της ημέρας.

© 2024 meteoblue, NOAA Satellites GOES-16 and EUMETSAT. Δεδομένα αστραπών παρεχόμενα από nowcast.

Επιστροφή στην κορυφή
×
Γεια σου,
φαίνεται ότι χρησιμοποιείς ένα πρόγραμμα αποκλεισμού διαφημίσεων.

Η διαφήμιση είναι απαραίτητη για τη διατήρηση του δωρεάν ιστότοπού μας με μοναδική λεπτομέρεια και ακρίβεια.

Παρακαλούμε καταχωρήστε το www.meteoblue.com στη λευκή λίστα του ad blocker σας ή σκεφτείτε να αγοράσετε ένα από τα προϊόντα μας:

Έχετε ήδη συνδρομή;
Τότε παρακαλούμε σύνδεση.